Time;durP1;ratioP1;P1;durP2;ratioP2;P2;SDS_P1;SDS_P2;PMS_P1;PMS_P2;Temp;Humidity;BMP_temperature;BMP_pressure;BME280_temperature;BME280_humidity;BME280_pressure;Samples;Min_cycle;Max_cycle;Signal;HPM_P1;HPM_P2
2021/10/22 00:01:00;;;;;;;15.80;2.08;;;;;;;7.47;62.84;101572.38;5094632;28;20030;-74
2021/10/22 00:03:25;;;;;;;10.50;2.30;;;;;;;7.43;64.02;101577.00;5076869;28;20034;-74
2021/10/22 00:05:50;;;;;;;9.80;1.77;;;;;;;7.34;64.86;101586.38;5093639;28;20032;-74
2021/10/22 00:08:16;;;;;;;10.63;1.70;;;;;;;7.32;64.20;101567.09;5094745;28;20048;-74
2021/10/22 00:10:41;;;;;;;10.90;2.00;;;;;;;7.29;65.01;101575.25;5094081;28;20024;-74
2021/10/22 00:13:08;;;;;;;14.30;2.00;;;;;;;7.28;64.69;101575.34;5094752;28;20465;-75
2021/10/22 00:15:33;;;;;;;10.00;1.65;;;;;;;7.27;64.74;101571.00;5094338;28;20093;-75
2021/10/22 00:17:59;;;;;;;10.70;1.70;;;;;;;7.20;66.21;101583.78;5094321;28;20024;-75
2021/10/22 00:20:24;;;;;;;10.57;2.10;;;;;;;7.30;62.77;101578.75;5094280;28;20028;-74
2021/10/22 00:22:49;;;;;;;7.63;1.95;;;;;;;7.33;62.55;101576.75;5093805;28;20028;-74
2021/10/22 00:25:15;;;;;;;11.40;1.88;;;;;;;7.38;61.39;101584.41;5094193;28;20399;-74
2021/10/22 00:27:40;;;;;;;11.73;1.75;;;;;;;7.37;62.11;101574.75;5093454;28;20032;-75
2021/10/22 00:30:06;;;;;;;10.88;2.00;;;;;;;7.35;62.00;101577.50;5094403;28;20071;-75
2021/10/22 00:32:31;;;;;;;5.80;1.17;;;;;;;7.36;60.86;101575.69;5094216;28;20075;-74
2021/10/22 00:34:57;;;;;;;8.13;2.13;;;;;;;7.45;61.21;101577.75;5093609;28;20107;-74
2021/10/22 00:37:23;;;;;;;11.00;1.75;;;;;;;7.47;61.42;101569.72;5075990;28;20031;-74
2021/10/22 00:39:49;;;;;;;11.57;1.67;;;;;;;7.42;62.12;101559.44;5093498;28;20028;-75
2021/10/22 00:42:16;;;;;;;9.50;1.90;;;;;;;7.47;59.54;101559.13;5094338;28;20097;-74
2021/10/22 00:44:42;;;;;;;10.57;2.03;;;;;;;7.44;61.52;101560.16;5093620;28;20115;-74
2021/10/22 00:47:09;;;;;;;13.82;1.90;;;;;;;7.47;60.78;101559.97;5076091;28;20371;-75
2021/10/22 00:49:34;;;;;;;11.50;2.40;;;;;;;7.48;61.90;101559.03;5075787;28;20042;-74
2021/10/22 00:52:00;;;;;;;11.15;1.75;;;;;;;7.59;60.02;101564.44;5093283;28;20111;-74
2021/10/22 00:54:25;;;;;;;6.97;1.42;;;;;;;7.64;62.38;101555.34;5093828;28;20028;-74
2021/10/22 00:56:51;;;;;;;13.38;2.05;;;;;;;7.67;63.01;101563.09;5093216;28;20084;-73
2021/10/22 00:59:17;;;;;;;9.32;1.73;;;;;;;7.80;62.58;101555.16;5093771;28;20035;-74
2021/10/22 01:01:43;;;;;;;9.27;2.05;;;;;;;7.87;61.83;101567.06;5075107;28;20024;-75
2021/10/22 01:04:08;;;;;;;16.73;2.85;;;;;;;7.92;63.05;101575.53;5093637;28;20059;-74
2021/10/22 01:06:43;;;;;;;14.73;2.63;;;;;;;7.94;61.76;101560.38;5093625;28;20040;-74
2021/10/22 01:09:10;;;;;;;15.85;2.72;;;;;;;7.98;62.46;101566.31;5093547;28;20453;-77
2021/10/22 01:11:35;;;;;;;11.60;2.03;;;;;;;8.00;62.11;101561.75;5093824;28;20035;-74
2021/10/22 01:14:02;;;;;;;8.88;2.03;;;;;;;7.99;62.24;101562.72;5093104;28;20036;-75
2021/10/22 01:16:28;;;;;;;15.93;2.50;;;;;;;7.95;62.12;101562.91;5093349;28;20031;-74
2021/10/22 01:18:54;;;;;;;10.95;2.10;;;;;;;7.98;62.85;101547.78;5092400;28;20036;-74
2021/10/22 01:21:19;;;;;;;14.77;2.60;;;;;;;8.03;63.06;101561.53;5093093;28;20462;-75
2021/10/22 01:23:45;;;;;;;11.05;2.00;;;;;;;8.02;62.49;101554.56;5092824;28;20364;-74
2021/10/22 01:26:10;;;;;;;10.15;2.38;;;;;;;8.05;62.55;101555.19;5093091;28;20107;-74
2021/10/22 01:28:35;;;;;;;13.80;2.45;;;;;;;8.09;62.59;101545.22;5075071;28;20024;-75
2021/10/22 01:31:01;;;;;;;18.95;2.72;;;;;;;8.12;62.12;101532.63;5092265;28;20020;-74
2021/10/22 01:33:27;;;;;;;12.35;2.53;;;;;;;8.12;62.41;101529.97;5093344;28;20044;-74
2021/10/22 01:35:53;;;;;;;15.38;2.33;;;;;;;8.16;63.13;101535.88;5092538;28;20028;-74
2021/10/22 01:38:21;;;;;;;17.63;2.35;;;;;;;8.18;63.91;101534.00;5093002;28;20440;-73
2021/10/22 01:40:49;;;;;;;15.63;2.92;;;;;;;8.21;64.43;101531.13;5092215;28;20031;-74
2021/10/22 01:43:15;;;;;;;9.95;2.28;;;;;;;8.18;66.34;101527.84;5092944;28;20368;-75
2021/10/22 01:45:41;;;;;;;17.52;2.70;;;;;;;8.12;66.55;101518.50;5093060;28;20445;-74
2021/10/22 01:48:07;;;;;;;12.32;2.33;;;;;;;8.09;67.28;101522.22;5092580;28;20032;-75
2021/10/22 01:50:33;;;;;;;18.23;2.78;;;;;;;8.14;67.74;101523.72;5092887;28;20027;-74
2021/10/22 01:52:59;;;;;;;23.30;2.60;;;;;;;8.15;68.50;101520.09;5092275;28;20452;-75
2021/10/22 01:55:24;;;;;;;12.73;2.50;;;;;;;8.10;69.78;101512.47;5092812;28;20035;-75
2021/10/22 01:57:50;;;;;;;14.73;2.60;;;;;;;8.07;68.10;101524.13;5092557;28;20058;-75
2021/10/22 02:00:16;;;;;;;10.73;2.05;;;;;;;8.17;67.71;101520.84;5092778;28;20045;-76
2021/10/22 02:02:41;;;;;;;13.18;2.38;;;;;;;8.24;68.75;101524.75;5092790;28;20039;-76
2021/10/22 02:05:07;;;;;;;13.98;2.58;;;;;;;8.30;68.96;101521.69;5092152;28;20020;-76
2021/10/22 02:07:32;;;;;;;11.48;1.90;;;;;;;8.33;67.76;101521.47;5092414;28;20032;-75
2021/10/22 02:09:58;;;;;;;11.60;2.45;;;;;;;8.34;67.26;101520.50;5092044;28;20031;-76
2021/10/22 02:12:23;;;;;;;6.82;1.95;;;;;;;8.31;68.62;101518.06;5092666;28;20077;-75
2021/10/22 02:14:49;;;;;;;14.23;2.83;;;;;;;8.28;67.28;101510.34;5092235;28;20056;-76
2021/10/22 02:17:14;;;;;;;11.65;2.17;;;;;;;8.33;66.68;101515.31;5092276;28;20454;-75
2021/10/22 02:19:40;;;;;;;13.85;2.28;;;;;;;8.37;67.62;101503.53;5074650;28;20131;-75
2021/10/22 02:22:05;;;;;;;7.38;1.63;;;;;;;8.44;67.47;101510.13;5091920;28;20032;-74
2021/10/22 02:24:31;;;;;;;17.75;3.25;;;;;;;8.50;68.03;101506.22;5074685;28;20028;-75
2021/10/22 02:26:56;;;;;;;10.50;2.25;;;;;;;8.49;69.10;101507.16;5091987;28;20021;-75
2021/10/22 02:29:22;;;;;;;14.60;2.30;;;;;;;8.49;68.49;101504.50;5095199;28;20027;-75
2021/10/22 02:31:47;;;;;;;15.80;2.60;;;;;;;8.42;69.45;101504.03;5096368;28;20076;-74
2021/10/22 02:34:13;;;;;;;9.30;1.60;;;;;;;8.47;68.49;101494.84;5095936;28;20052;-75
2021/10/22 02:36:39;;;;;;;14.02;1.95;;;;;;;8.64;67.95;101496.31;5096574;28;20106;-77
2021/10/22 02:39:05;;;;;;;10.13;2.05;;;;;;;8.61;69.21;101499.19;5095817;28;20020;-75
2021/10/22 02:41:30;;;;;;;12.95;1.88;;;;;;;8.59;69.76;101489.63;5096391;28;20456;-75
2021/10/22 02:43:56;;;;;;;14.82;2.78;;;;;;;8.61;69.92;101488.56;5095910;28;20074;-76
2021/10/22 02:46:22;;;;;;;8.30;1.80;;;;;;;8.55;71.33;101478.38;5096120;28;20115;-75
2021/10/22 02:48:47;;;;;;;9.38;2.03;;;;;;;8.56;70.26;101480.06;5096367;28;20028;-76
2021/10/22 02:51:12;;;;;;;11.00;2.05;;;;;;;8.66;69.61;101485.59;5095361;28;20084;-75
2021/10/22 02:53:38;;;;;;;10.60;1.80;;;;;;;8.66;69.99;101490.88;5096411;28;20020;-76
2021/10/22 02:56:03;;;;;;;12.93;2.00;;;;;;;8.70;69.45;101494.16;5095830;28;20081;-75
2021/10/22 02:58:29;;;;;;;14.32;2.20;;;;;;;8.72;70.39;101478.97;5078089;28;20059;-75
2021/10/22 03:00:54;;;;;;;9.00;2.15;;;;;;;8.76;70.50;101480.44;5095845;28;20024;-74
2021/10/22 03:03:20;;;;;;;9.48;1.58;;;;;;;8.76;70.52;101486.63;5095514;28;20103;-76
2021/10/22 03:05:45;;;;;;;15.02;1.77;;;;;;;8.73;71.11;101489.50;5096373;28;20028;-75
2021/10/22 03:08:10;;;;;;;7.78;1.92;;;;;;;8.72;70.72;101484.25;5077066;28;20036;-75
2021/10/22 03:10:36;;;;;;;13.93;2.03;;;;;;;8.77;70.33;101485.63;5095883;28;20028;-75
2021/10/22 03:13:02;;;;;;;9.27;2.10;;;;;;;8.81;69.60;101462.41;5095032;28;20081;-76
2021/10/22 03:15:27;;;;;;;10.80;1.73;;;;;;;8.82;70.77;101495.91;5095514;28;20457;-74
2021/10/22 03:17:56;;;;;;;9.90;1.77;;;;;;;8.84;69.97;101488.72;5095645;28;20024;-75
2021/10/22 03:20:21;;;;;;;8.20;1.52;;;;;;;8.91;68.42;101489.97;5095099;28;20024;-74
2021/10/22 03:22:47;;;;;;;12.60;2.42;;;;;;;8.94;68.96;101460.53;5095754;28;20027;-75
2021/10/22 03:25:12;;;;;;;14.15;2.28;;;;;;;8.98;69.04;101477.91;5094768;28;20470;-76
2021/10/22 03:27:38;;;;;;;17.40;2.30;;;;;;;9.03;69.05;101477.56;5095774;28;20463;-75
2021/10/22 03:30:05;;;;;;;14.85;2.17;;;;;;;9.04;68.72;101478.44;5094918;28;20028;-76
2021/10/22 03:32:33;;;;;;;12.00;2.33;;;;;;;9.00;69.12;101476.00;5095517;28;20036;-75
2021/10/22 03:35:03;;;;;;;12.98;2.10;;;;;;;9.03;68.77;101472.25;5095396;28;20514;-75
2021/10/22 03:37:28;;;;;;;16.40;2.42;;;;;;;9.00;69.83;101494.59;5095153;28;20031;-77
2021/10/22 03:39:54;;;;;;;12.80;2.00;;;;;;;9.10;68.25;101464.69;5076463;28;20040;-74
2021/10/22 03:42:19;;;;;;;10.38;1.95;;;;;;;9.16;68.29;101478.34;5094698;28;20027;-75
2021/10/22 03:44:44;;;;;;;14.48;1.85;;;;;;;9.19;68.22;101466.66;5076775;28;20036;-75
2021/10/22 03:47:11;;;;;;;14.23;2.47;;;;;;;9.12;68.66;101476.91;5094658;28;20097;-75
2021/10/22 03:49:37;;;;;;;12.73;2.33;;;;;;;9.14;69.22;101464.34;5095110;28;20467;-74
2021/10/22 03:52:03;;;;;;;12.13;2.65;;;;;;;9.10;70.07;101470.00;5095105;28;20067;-74
2021/10/22 03:54:28;;;;;;;14.63;2.13;;;;;;;9.12;69.90;101470.72;5094751;28;20024;-74
2021/10/22 03:56:53;;;;;;;12.45;2.38;;;;;;;9.14;70.56;101474.13;5095147;28;20031;-73
2021/10/22 03:59:18;;;;;;;15.68;2.67;;;;;;;9.14;70.63;101476.78;5094352;28;20435;-74
2021/10/22 04:01:45;;;;;;;14.20;2.67;;;;;;;9.13;71.02;101477.75;5094891;28;20507;-74
2021/10/22 04:04:11;;;;;;;14.60;2.65;;;;;;;9.11;70.84;101491.13;5094238;28;20123;-76
2021/10/22 04:06:37;;;;;;;15.52;2.30;;;;;;;9.18;69.38;101479.09;5095039;28;20409;-74
2021/10/22 04:09:03;;;;;;;13.57;2.13;;;;;;;9.18;69.05;101491.50;5094829;28;20024;-74
2021/10/22 04:11:28;;;;;;;8.82;1.60;;;;;;;9.21;66.78;101499.28;5094215;28;20364;-78
2021/10/22 04:13:54;;;;;;;9.98;2.05;;;;;;;9.21;66.75;101501.06;5094184;28;20036;-75
2021/10/22 04:16:19;;;;;;;6.30;1.65;;;;;;;9.17;64.87;101501.28;5094043;28;20028;-74
2021/10/22 04:18:44;;;;;;;13.35;1.85;;;;;;;9.12;65.70;101510.56;5094392;28;20028;-75
2021/10/22 04:21:10;;;;;;;6.88;1.70;;;;;;;9.02;65.69;101509.53;5075791;28;20456;-75
2021/10/22 04:23:35;;;;;;;10.00;1.40;;;;;;;9.01;65.44;101524.63;5076418;28;20463;-75
2021/10/22 04:26:01;;;;;;;9.68;1.88;;;;;;;8.98;66.83;101515.06;5094215;28;20483;-79
2021/10/22 04:28:27;;;;;;;7.70;1.42;;;;;;;8.99;66.54;101511.47;5093824;28;20079;-74
2021/10/22 04:30:52;;;;;;;16.15;2.10;;;;;;;8.95;66.02;101520.59;5094316;28;20024;-77
2021/10/22 04:33:17;;;;;;;10.57;1.80;;;;;;;8.96;66.63;101524.13;5093824;28;20044;-75
2021/10/22 04:35:43;;;;;;;9.73;1.65;;;;;;;8.92;67.35;101515.50;5094030;28;20456;-74
2021/10/22 04:40:52;;;;;;;7.95;2.10;;;;;;;8.96;67.43;101518.81;5094176;28;20361;-73
2021/10/22 04:43:18;;;;;;;7.65;1.50;;;;;;;9.00;66.47;101525.56;5093417;28;20040;-75
2021/10/22 04:45:48;;;;;;;12.13;1.73;;;;;;;9.08;65.62;101520.56;5094111;28;20036;-74
2021/10/22 04:48:13;;;;;;;7.25;1.90;;;;;;;9.13;66.02;101518.41;5093447;28;20054;-75
2021/10/22 04:50:44;;;;;;;10.07;1.60;;;;;;;9.13;66.86;101510.44;5093980;28;20031;-73
2021/10/22 04:53:10;;;;;;;11.10;2.10;;;;;;;9.19;65.74;101517.09;5092964;28;20050;-74
2021/10/22 04:55:38;;;;;;;5.72;1.52;;;;;;;9.27;65.77;101504.13;5093294;28;20262;-74
2021/10/22 04:58:03;;;;;;;9.68;1.60;;;;;;;9.24;68.73;101499.03;5093920;28;20015;-74
2021/10/22 05:00:28;;;;;;;13.32;2.00;;;;;;;9.21;67.79;101511.69;5093120;28;20023;-76
2021/10/22 05:02:54;;;;;;;8.50;1.50;;;;;;;9.20;67.81;101481.63;5093682;28;20368;-75
2021/10/22 05:05:19;;;;;;;8.73;1.80;;;;;;;9.18;67.10;101481.75;5093109;28;20027;-74
2021/10/22 05:07:45;;;;;;;13.15;1.60;;;;;;;9.21;68.44;101486.00;5075805;28;20060;-74
2021/10/22 05:10:10;;;;;;;18.23;2.05;;;;;;;9.13;68.77;101493.66;5093611;28;20079;-74
2021/10/22 05:12:44;;;;;;;7.65;1.42;;;;;;;8.99;66.98;101486.72;5069955;28;20917;-76
2021/10/22 05:15:10;;;;;;;5.57;1.30;;;;;;;8.93;66.10;101480.06;5069636;28;20037;-73
2021/10/22 05:17:36;;;;;;;12.55;1.60;;;;;;;8.99;64.61;101478.78;5069241;28;20070;-74
2021/10/22 05:20:04;;;;;;;7.90;1.73;;;;;;;8.95;65.35;101479.94;5069684;28;20060;-76
2021/10/22 05:22:30;;;;;;;13.35;1.63;;;;;;;8.95;64.69;101474.66;5069387;28;20119;-74
2021/10/22 05:24:56;;;;;;;9.85;1.58;;;;;;;8.87;65.88;101458.41;5069790;28;20112;-74
2021/10/22 05:27:22;;;;;;;8.65;1.50;;;;;;;8.80;65.71;101453.56;5069096;28;20111;-74
2021/10/22 05:29:47;;;;;;;8.52;2.05;;;;;;;8.81;63.82;101457.09;5069641;28;20056;-74
2021/10/22 05:32:13;;;;;;;15.60;2.53;;;;;;;8.89;63.47;101453.88;5069433;28;20443;-74
2021/10/22 05:34:38;;;;;;;7.53;1.60;;;;;;;8.92;63.70;101456.28;5068951;28;20507;-74
2021/10/22 05:37:03;;;;;;;13.07;1.92;;;;;;;9.03;63.16;101458.97;5069507;28;20033;-75
2021/10/22 05:39:30;;;;;;;9.95;2.03;;;;;;;9.10;62.90;101444.28;5068674;28;20435;-75
2021/10/22 05:41:55;;;;;;;8.68;1.90;;;;;;;9.10;64.26;101449.59;5068975;28;20036;-75
2021/10/22 05:44:21;;;;;;;14.45;2.08;;;;;;;9.09;65.08;101457.69;5068743;28;20039;-76
2021/10/22 05:46:50;;;;;;;15.02;2.35;;;;;;;9.07;64.83;101454.31;5069304;28;20031;-74
2021/10/22 05:49:15;;;;;;;12.73;2.97;;;;;;;9.05;64.40;101456.25;5069112;28;20024;-74
2021/10/22 05:51:41;;;;;;;6.18;1.48;;;;;;;9.03;65.55;101461.63;5068442;28;20062;-74
2021/10/22 05:54:07;;;;;;;12.18;2.00;;;;;;;9.02;64.64;101436.06;5069307;28;20028;-73
2021/10/22 05:56:32;;;;;;;8.38;2.13;;;;;;;8.99;65.78;101452.22;5068486;28;20342;-75
2021/10/22 05:58:58;;;;;;;10.95;2.67;;;;;;;8.94;66.27;101451.69;5069023;28;20067;-74
2021/10/22 06:01:23;;;;;;;17.90;2.70;;;;;;;8.85;66.75;101447.91;5068411;28;20033;-74
2021/10/22 06:03:49;;;;;;;16.67;2.20;;;;;;;8.78;64.69;101450.19;5068902;28;20021;-74
2021/10/22 06:06:15;;;;;;;7.97;2.10;;;;;;;8.72;63.81;101444.47;5068846;28;20165;-74
2021/10/22 06:08:41;;;;;;;9.65;1.92;;;;;;;8.71;63.42;101453.41;5067976;28;20033;-74
2021/10/22 06:11:11;;;;;;;9.35;1.98;;;;;;;8.72;63.60;101457.72;5068193;28;20106;-73
2021/10/22 06:13:40;;;;;;;15.40;2.35;;;;;;;8.72;64.27;101458.59;5067988;28;20029;-74
2021/10/22 06:16:06;;;;;;;11.88;2.25;;;;;;;8.75;63.71;101455.72;5068898;28;20123;-74
2021/10/22 06:18:34;;;;;;;14.38;2.22;;;;;;;8.80;63.24;101452.72;5066758;28;20418;-75
2021/10/22 06:21:04;;;;;;;11.77;2.42;;;;;;;8.85;63.79;101458.53;5068435;28;20086;-75
2021/10/22 06:26:14;;;;;;;14.73;2.10;;;;;;;8.84;63.57;101451.56;5055413;28;20041;-75
2021/10/22 06:28:40;;;;;;;11.18;1.83;;;;;;;8.86;64.40;101462.88;5054687;28;20020;-73
2021/10/22 06:31:06;;;;;;;8.75;1.67;;;;;;;8.85;64.60;101458.53;5055073;28;20384;-74
2021/10/22 06:33:31;;;;;;;10.85;2.13;;;;;;;8.85;65.24;101465.66;5053970;28;20037;-74
2021/10/22 06:35:57;;;;;;;16.00;2.33;;;;;;;8.83;65.09;101452.50;5054743;28;20057;-74
2021/10/22 06:38:23;;;;;;;13.15;2.00;;;;;;;8.88;64.66;101465.44;5055287;28;20339;-72
2021/10/22 06:40:53;;;;;;;17.55;3.17;;;;;;;8.92;65.09;101459.78;5053042;28;20404;-74
2021/10/22 06:43:20;;;;;;;9.18;2.15;;;;;;;8.90;65.94;101467.03;5054909;28;20070;-73
2021/10/22 06:45:45;;;;;;;12.05;2.17;;;;;;;8.86;66.25;101467.38;5054244;28;20040;-75
2021/10/22 06:48:11;;;;;;;11.77;2.13;;;;;;;8.83;65.94;101463.13;5054872;28;20029;-74
2021/10/22 06:50:36;;;;;;;13.65;2.42;;;;;;;8.82;65.05;101464.94;5054083;28;20047;-74
2021/10/22 06:53:01;;;;;;;18.08;2.53;;;;;;;8.80;64.27;101466.84;5054966;28;20025;-74
2021/10/22 06:55:27;;;;;;;11.25;1.90;;;;;;;8.88;64.19;101468.91;5055055;28;20029;-73
2021/10/22 06:57:52;;;;;;;13.00;2.15;;;;;;;8.93;63.82;101466.78;5053803;28;20075;-73
2021/10/22 07:00:17;;;;;;;10.40;2.00;;;;;;;9.01;63.82;101479.50;5054575;28;20480;-73
2021/10/22 07:02:54;;;;;;;11.38;1.98;;;;;;;9.13;63.45;101475.91;5053913;28;20029;-73
2021/10/22 07:08:05;;;;;;;17.00;2.35;;;;;;;9.35;63.97;101484.97;5053365;28;20086;-73
2021/10/22 07:10:32;;;;;;;13.98;2.60;;;;;;;9.37;65.42;101482.19;5053394;28;20025;-76
2021/10/22 07:12:58;;;;;;;11.93;2.85;;;;;;;9.36;66.22;101489.31;5054574;28;20111;-74
2021/10/22 07:15:25;;;;;;;13.75;2.55;;;;;;;9.39;66.41;101493.53;5054565;28;20408;-74
2021/10/22 07:17:52;;;;;;;19.70;2.28;;;;;;;9.37;66.84;101495.47;5053693;28;20261;-75
2021/10/22 07:20:18;;;;;;;23.73;2.88;;;;;;;9.41;66.26;101494.28;5054213;28;20063;-75
2021/10/22 07:25:16;;;;;;;13.30;2.33;;;;;;;9.46;66.15;101502.72;5054176;28;20441;-74
2021/10/22 07:27:42;;;;;;;17.15;2.85;;;;;;;9.52;66.51;101494.28;5052619;28;20032;-74
2021/10/22 07:30:08;;;;;;;17.10;2.78;;;;;;;9.49;67.83;101498.06;5054041;28;20385;-76
2021/10/22 07:32:33;;;;;;;17.67;2.88;;;;;;;9.51;67.68;101516.53;5053729;28;20449;-77
2021/10/22 07:34:59;;;;;;;16.52;2.00;;;;;;;9.57;67.10;101528.47;5052963;28;20029;-77
2021/10/22 07:37:24;;;;;;;12.68;2.38;;;;;;;9.62;66.92;101513.06;5054006;28;20112;-75
2021/10/22 07:39:51;;;;;;;20.05;2.65;;;;;;;9.69;66.08;101501.00;5053305;28;20024;-74
2021/10/22 07:42:16;;;;;;;19.55;2.50;;;;;;;9.69;65.63;101511.63;5054047;28;20029;-74
2021/10/22 07:44:42;;;;;;;12.75;1.92;;;;;;;9.70;66.18;101513.31;5052996;28;20025;-75
2021/10/22 07:47:07;;;;;;;14.80;2.60;;;;;;;9.69;66.12;101522.25;5053863;28;20025;-74
2021/10/22 07:49:32;;;;;;;11.73;2.33;;;;;;;9.67;65.87;101519.72;5053660;28;20029;-74
2021/10/22 07:51:59;;;;;;;14.05;2.42;;;;;;;9.62;65.71;101521.88;5052774;28;20513;-75
2021/10/22 07:54:24;;;;;;;12.65;2.35;;;;;;;9.63;65.54;101520.91;5053547;28;20033;-77
2021/10/22 07:56:50;;;;;;;17.25;2.40;;;;;;;9.65;66.60;101510.16;5053034;28;20468;-76
2021/10/22 07:59:16;;;;;;;20.75;2.80;;;;;;;9.68;66.05;101526.72;5053403;28;20033;-75
2021/10/22 08:01:43;;;;;;;15.50;2.70;;;;;;;9.73;65.96;101525.53;5051666;28;20441;-76
2021/10/22 08:04:12;;;;;;;14.10;2.17;;;;;;;9.88;65.34;101517.22;5053439;28;20036;-74
2021/10/22 08:06:38;;;;;;;15.45;2.53;;;;;;;9.97;64.73;101528.97;5053464;28;20029;-75
2021/10/22 08:09:06;;;;;;;18.92;3.03;;;;;;;10.09;65.28;101539.59;5053279;28;20021;-73
2021/10/22 08:11:32;;;;;;;16.90;1.98;;;;;;;10.11;65.40;101529.72;5053268;28;20087;-74
2021/10/22 08:13:58;;;;;;;24.15;3.22;;;;;;;10.09;64.92;101537.81;5052549;28;20053;-74
2021/10/22 08:16:24;;;;;;;17.38;2.33;;;;;;;10.16;64.54;101544.31;5052834;28;20365;-74
2021/10/22 08:18:49;;;;;;;17.58;2.75;;;;;;;10.26;64.31;101543.63;5052592;28;20029;-75
2021/10/22 08:21:20;;;;;;;22.52;2.83;;;;;;;10.38;64.62;101540.03;5053072;28;20040;-74
2021/10/22 08:23:46;;;;;;;;;;;;;;;10.49;64.04;101540.00;5052643;28;20037;-74
2021/10/22 08:26:13;;;;;;;21.08;2.58;;;;;;;10.43;64.49;101545.81;5052745;28;19958;-75
2021/10/22 08:28:38;;;;;;;20.38;2.30;;;;;;;10.44;64.41;101542.22;5052989;28;20032;-75
2021/10/22 08:31:06;;;;;;;17.27;2.42;;;;;;;10.47;65.29;101557.94;5052281;28;20116;-74
2021/10/22 08:33:31;;;;;;;13.98;2.92;;;;;;;10.47;65.23;101589.03;5052972;28;20025;-77
2021/10/22 08:35:57;;;;;;;11.90;2.10;;;;;;;10.41;65.33;101567.22;5052349;28;20369;-74
2021/10/22 08:38:24;;;;;;;12.52;2.33;;;;;;;10.39;65.05;101573.66;5052738;28;20060;-74
2021/10/22 08:40:53;;;;;;;14.70;2.85;;;;;;;10.38;65.33;101572.78;5052147;28;20033;-75
2021/10/22 08:43:19;;;;;;;20.85;2.45;;;;;;;10.44;64.61;101570.63;5052715;28;20021;-74
2021/10/22 08:45:46;;;;;;;14.18;2.70;;;;;;;10.51;65.18;101564.72;5051888;28;20040;-76
2021/10/22 08:48:13;;;;;;;18.17;2.70;;;;;;;10.56;65.11;101577.66;5052346;28;20036;-74
2021/10/22 08:50:39;;;;;;;17.05;2.60;;;;;;;10.52;65.85;101569.03;5052509;28;20054;-75
2021/10/22 08:53:05;;;;;;;17.52;2.50;;;;;;;10.71;65.98;101576.41;5051734;28;20108;-75
2021/10/22 08:55:30;;;;;;;18.33;2.92;;;;;;;10.81;65.76;101563.25;5052582;28;20453;-74
2021/10/22 08:57:56;;;;;;;18.80;2.95;;;;;;;10.93;66.40;101561.41;5051983;28;20029;-76
2021/10/22 09:00:24;;;;;;;16.73;2.38;;;;;;;11.21;65.33;101588.44;5052444;28;20496;-75
2021/10/22 09:02:52;;;;;;;15.88;3.20;;;;;;;11.05;65.93;101587.03;5051860;28;20029;-75
2021/10/22 09:05:25;;;;;;;20.65;2.88;;;;;;;10.87;65.62;101588.53;5052808;28;20040;-74
2021/10/22 09:07:54;;;;;;;12.73;2.40;;;;;;;10.98;65.04;101575.19;5052086;28;20040;-77
2021/10/22 09:10:24;;;;;;;15.68;2.35;;;;;;;11.19;65.15;101577.91;5052158;28;20028;-76
2021/10/22 09:12:56;;;;;;;12.32;2.40;;;;;;;11.26;63.92;101573.78;5051926;28;20029;-79
2021/10/22 09:15:26;;;;;;;15.68;2.30;;;;;;;11.13;65.64;101585.56;5052496;28;20033;-75
2021/10/22 09:17:52;;;;;;;17.90;2.40;;;;;;;10.96;66.24;101590.44;5051723;28;20096;-73
2021/10/22 09:20:19;;;;;;;13.93;2.42;;;;;;;10.96;67.10;101593.09;5052386;28;20114;-75
2021/10/22 09:22:59;;;;;;;13.00;2.65;;;;;;;10.70;68.18;101581.88;5052336;28;20083;-78
2021/10/22 09:25:28;;;;;;;12.75;2.20;;;;;;;10.57;68.07;101590.00;5052383;28;20021;-72
2021/10/22 09:28:01;;;;;;;14.38;2.50;;;;;;;10.61;67.66;101585.25;5051728;28;20028;-74
2021/10/22 09:30:45;;;;;;;12.75;2.38;;;;;;;10.76;69.28;101603.53;5052117;28;20025;-72
2021/10/22 09:33:10;;;;;;;12.50;2.67;;;;;;;11.46;65.84;101609.47;5051581;28;20033;-72
2021/10/22 09:35:41;;;;;;;17.30;2.97;;;;;;;11.34;65.15;101617.59;5052190;28;20350;-77
2021/10/22 09:38:14;;;;;;;15.23;3.13;;;;;;;11.58;64.05;101615.56;5051633;28;20032;-75
2021/10/22 09:40:50;;;;;;;14.02;3.22;;;;;;;12.12;63.38;101608.47;5052042;28;20029;-75
2021/10/22 09:43:21;;;;;;;14.95;3.00;;;;;;;11.76;64.43;101625.69;5051747;28;20025;-76
2021/10/22 09:45:48;;;;;;;12.73;2.60;;;;;;;11.44;64.57;101615.88;5052237;28;20111;-75
2021/10/22 09:48:32;;;;;;;19.10;2.90;;;;;;;11.27;66.50;101628.78;5051466;28;20033;-75
2021/10/22 09:51:30;;;;;;;14.90;2.53;;;;;;;10.98;65.67;101625.78;5051285;28;20052;-77
2021/10/22 09:54:01;;;;;;;18.23;3.00;;;;;;;11.01;67.04;101630.03;5051438;28;20432;-77
2021/10/22 09:56:28;;;;;;;18.92;3.00;;;;;;;11.09;66.60;101635.56;5051960;28;20468;-75
2021/10/22 09:59:06;;;;;;;17.33;2.70;;;;;;;10.94;68.20;101632.31;5054182;28;20036;-77
2021/10/22 10:01:43;;;;;;;18.02;2.50;;;;;;;10.74;69.38;101629.41;5056114;28;20031;-72
2021/10/22 10:04:10;;;;;;;16.02;2.60;;;;;;;10.84;68.86;101658.81;5055214;28;20062;-72
2021/10/22 10:06:39;;;;;;;21.05;2.35;;;;;;;10.83;68.34;101643.81;5055345;28;20033;-74
2021/10/22 10:09:08;;;;;;;12.73;2.40;;;;;;;10.72;69.07;101650.00;5055030;28;20021;-74
2021/10/22 10:11:34;;;;;;;17.77;3.05;;;;;;;10.70;68.62;101641.28;5054821;28;20052;-73
2021/10/22 10:14:01;;;;;;;13.38;2.17;;;;;;;10.73;67.33;101637.50;5054657;28;20041;-73
2021/10/22 10:16:31;;;;;;;10.82;2.35;;;;;;;10.82;68.60;101628.81;5055303;28;20116;-72
2021/10/22 10:19:20;;;;;;;18.10;2.88;;;;;;;10.65;70.36;101645.28;5053740;28;20399;-76
2021/10/22 10:21:53;;;;;;;14.23;2.30;;;;;;;10.73;70.07;101633.06;5055264;28;20029;-73
2021/10/22 10:24:21;;;;;;;15.13;2.08;;;;;;;10.95;68.90;101655.31;5054754;28;20078;-72
2021/10/22 10:27:02;;;;;;;13.68;2.63;;;;;;;11.08;69.14;101647.19;5055469;28;20021;-72
2021/10/22 10:29:49;;;;;;;15.05;3.17;;;;;;;11.05;68.25;101650.94;5055179;28;20059;-73
2021/10/22 10:32:23;;;;;;;18.90;2.15;;;;;;;10.92;67.54;101664.38;5053914;28;20140;-74
2021/10/22 10:34:53;;;;;;;30.00;3.53;;;;;;;10.87;69.66;101653.25;5054872;28;20579;-74
2021/10/22 10:37:20;;;;;;;16.67;2.95;;;;;;;11.01;68.68;101657.47;5054176;28;20381;-73
2021/10/22 10:39:49;;;;;;;14.13;2.25;;;;;;;11.10;68.03;101656.75;5054758;28;20029;-74
2021/10/22 10:42:26;;;;;;;14.95;2.15;;;;;;;11.07;68.24;101654.31;5054545;28;20033;-74
2021/10/22 10:44:57;;;;;;;14.60;2.80;;;;;;;11.19;68.16;101664.97;5054899;28;20056;-74
2021/10/22 10:47:28;;;;;;;14.05;2.45;;;;;;;11.54;66.60;101663.94;5054373;28;20048;-74
2021/10/22 10:49:54;;;;;;;10.65;2.40;;;;;;;11.66;66.42;101662.94;5054709;28;20473;-74
2021/10/22 10:52:37;;;;;;;14.23;2.80;;;;;;;11.65;66.54;101663.91;5054165;28;20265;-73
2021/10/22 10:55:33;;;;;;;18.40;2.63;;;;;;;11.57;66.54;101679.69;5054211;28;20029;-74
2021/10/22 10:58:07;;;;;;;12.52;2.65;;;;;;;11.62;66.79;101674.84;5046612;28;20029;-75
2021/10/22 11:00:48;;;;;;;15.65;2.97;;;;;;;11.55;66.86;101678.97;5055083;28;20048;-74
2021/10/22 11:03:25;;;;;;;19.15;3.30;;;;;;;11.49;66.86;101677.63;5053923;28;20060;-74
2021/10/22 11:05:52;;;;;;;13.70;3.47;;;;;;;11.28;67.45;101689.06;5054637;28;20090;-74
2021/10/22 11:08:19;;;;;;;16.90;2.20;;;;;;;11.21;68.38;101695.00;5053447;28;20477;-73
2021/10/22 11:11:14;;;;;;;11.85;2.15;;;;;;;11.18;67.38;101698.78;5054110;28;20489;-74
2021/10/22 11:13:48;;;;;;;17.20;2.53;;;;;;;11.16;67.96;101710.50;5054768;28;20075;-74
2021/10/22 11:16:20;;;;;;;17.27;2.65;;;;;;;11.21;67.80;101713.66;5053776;28;20033;-73
2021/10/22 11:18:49;;;;;;;16.20;2.10;;;;;;;11.21;66.91;101713.66;5054395;28;20037;-74
2021/10/22 11:21:15;;;;;;;22.48;2.85;;;;;;;11.17;67.86;101707.72;5053342;28;20048;-74
2021/10/22 11:23:40;;;;;;;13.23;2.20;;;;;;;10.96;68.08;101717.38;5054474;28;20029;-73
2021/10/22 11:26:06;;;;;;;14.23;2.28;;;;;;;10.89;68.42;101723.19;5051980;28;20425;-73
2021/10/22 11:28:32;;;;;;;13.95;2.15;;;;;;;10.89;67.35;101727.69;5054152;28;20055;-75
2021/10/22 11:30:58;;;;;;;13.85;2.50;;;;;;;11.07;68.36;101733.38;5054084;28;20043;-73
2021/10/22 11:33:27;;;;;;;16.42;3.05;;;;;;;11.49;66.47;101728.28;5053414;28;20465;-74
2021/10/22 11:35:54;;;;;;;14.57;2.35;;;;;;;11.56;66.30;101726.81;5053750;28;20025;-74